sensor_id;sensor_type;location;lat;lon;timestamp;pressure;altitude;pressure_sealevel;temperature;humidity
48035;BME280;33812;46.480;6.834;2023-05-08T00:00:29;94028.78;;;22.03;45.85
48035;BME280;33812;46.480;6.834;2023-05-08T00:04:31;94031.81;;;21.92;45.75
48035;BME280;33812;46.480;6.834;2023-05-08T00:08:33;94041.97;;;21.82;45.95
48035;BME280;33812;46.480;6.834;2023-05-08T00:12:35;94047.91;;;21.80;46.05
48035;BME280;33812;46.480;6.834;2023-05-08T00:16:38;94040.84;;;21.79;46.12
48035;BME280;33812;46.480;6.834;2023-05-08T00:20:40;94035.66;;;21.81;46.12
48035;BME280;33812;46.480;6.834;2023-05-08T00:24:42;94037.09;;;21.86;46.14
48035;BME280;33812;46.480;6.834;2023-05-08T00:28:44;94034.78;;;21.84;46.10
48035;BME280;33812;46.480;6.834;2023-05-08T00:32:47;94031.81;;;21.75;46.14
48035;BME280;33812;46.480;6.834;2023-05-08T00:36:49;94030.81;;;21.69;46.15
48035;BME280;33812;46.480;6.834;2023-05-08T00:40:51;94033.56;;;21.69;46.40
48035;BME280;33812;46.480;6.834;2023-05-08T00:44:52;94035.81;;;21.74;46.26
48035;BME280;33812;46.480;6.834;2023-05-08T00:48:56;94042.38;;;21.80;46.14
48035;BME280;33812;46.480;6.834;2023-05-08T00:52:59;94035.25;;;21.49;46.85
48035;BME280;33812;46.480;6.834;2023-05-08T00:57:05;94040.06;;;21.45;47.44
48035;BME280;33812;46.480;6.834;2023-05-08T01:01:08;94040.50;;;21.60;47.06
48035;BME280;33812;46.480;6.834;2023-05-08T01:05:12;94041.31;;;21.28;47.61
48035;BME280;33812;46.480;6.834;2023-05-08T01:09:14;94048.06;;;21.10;48.39
48035;BME280;33812;46.480;6.834;2023-05-08T01:17:43;94054.25;;;21.14;48.43
48035;BME280;33812;46.480;6.834;2023-05-08T01:21:52;94048.81;;;21.10;48.62
48035;BME280;33812;46.480;6.834;2023-05-08T01:26:30;94048.56;;;21.21;48.32
48035;BME280;33812;46.480;6.834;2023-05-08T01:30:48;94047.34;;;21.39;47.70
48035;BME280;33812;46.480;6.834;2023-05-08T01:35:02;94048.13;;;21.40;47.65
48035;BME280;33812;46.480;6.834;2023-05-08T01:39:13;94051.78;;;21.03;48.69
48035;BME280;33812;46.480;6.834;2023-05-08T01:43:24;94050.03;;;21.09;48.69
48035;BME280;33812;46.480;6.834;2023-05-08T01:47:28;94044.94;;;21.24;48.29
48035;BME280;33812;46.480;6.834;2023-05-08T01:51:38;94054.19;;;21.34;47.92
48035;BME280;33812;46.480;6.834;2023-05-08T01:55:42;94056.28;;;20.93;49.18
48035;BME280;33812;46.480;6.834;2023-05-08T01:59:45;94052.38;;;21.28;48.13
48035;BME280;33812;46.480;6.834;2023-05-08T02:03:48;94048.50;;;21.42;47.70
48035;BME280;33812;46.480;6.834;2023-05-08T02:07:53;94040.72;;;20.83;49.30
48035;BME280;33812;46.480;6.834;2023-05-08T02:11:56;94039.44;;;20.87;49.35
48035;BME280;33812;46.480;6.834;2023-05-08T02:16:00;94039.25;;;21.15;48.36
48035;BME280;33812;46.480;6.834;2023-05-08T02:20:04;94043.72;;;21.09;48.74
48035;BME280;33812;46.480;6.834;2023-05-08T02:24:08;94042.44;;;21.13;48.55
48035;BME280;33812;46.480;6.834;2023-05-08T02:28:11;94035.34;;;21.46;47.73
48035;BME280;33812;46.480;6.834;2023-05-08T02:32:13;94031.53;;;21.56;47.29
48035;BME280;33812;46.480;6.834;2023-05-08T02:36:17;94036.91;;;21.30;47.65
48035;BME280;33812;46.480;6.834;2023-05-08T02:40:22;94041.91;;;21.02;48.37
48035;BME280;33812;46.480;6.834;2023-05-08T02:44:25;94035.88;;;21.07;48.27
48035;BME280;33812;46.480;6.834;2023-05-08T02:48:32;94036.28;;;20.89;48.73
48035;BME280;33812;46.480;6.834;2023-05-08T02:52:43;94038.53;;;21.11;48.18
48035;BME280;33812;46.480;6.834;2023-05-08T02:56:54;94026.13;;;21.02;48.46
48035;BME280;33812;46.480;6.834;2023-05-08T03:01:02;94037.00;;;21.10;48.30
48035;BME280;33812;46.480;6.834;2023-05-08T03:05:12;94040.09;;;21.12;48.36
48035;BME280;33812;46.480;6.834;2023-05-08T03:09:18;94042.94;;;21.25;47.93
48035;BME280;33812;46.480;6.834;2023-05-08T03:13:22;94035.13;;;20.86;48.79
48035;BME280;33812;46.480;6.834;2023-05-08T03:17:27;94035.19;;;21.03;48.44
48035;BME280;33812;46.480;6.834;2023-05-08T03:21:32;94026.19;;;21.32;47.75
48035;BME280;33812;46.480;6.834;2023-05-08T03:25:34;94017.72;;;21.23;47.59
48035;BME280;33812;46.480;6.834;2023-05-08T03:29:40;94021.63;;;21.25;47.89
48035;BME280;33812;46.480;6.834;2023-05-08T03:33:43;94019.94;;;21.61;47.17
48035;BME280;33812;46.480;6.834;2023-05-08T03:37:45;94020.91;;;21.55;46.90
48035;BME280;33812;46.480;6.834;2023-05-08T03:41:47;94012.69;;;21.51;46.74
48035;BME280;33812;46.480;6.834;2023-05-08T03:45:51;94014.00;;;21.30;47.28
48035;BME280;33812;46.480;6.834;2023-05-08T03:49:54;94017.31;;;21.08;47.63
48035;BME280;33812;46.480;6.834;2023-05-08T03:53:56;94012.69;;;21.51;47.08
48035;BME280;33812;46.480;6.834;2023-05-08T03:58:04;94013.78;;;21.70;46.64
48035;BME280;33812;46.480;6.834;2023-05-08T04:02:18;94019.31;;;21.70;46.36
48035;BME280;33812;46.480;6.834;2023-05-08T04:06:26;94019.56;;;21.13;47.09
48035;BME280;33812;46.480;6.834;2023-05-08T04:10:31;94021.44;;;21.16;47.02
48035;BME280;33812;46.480;6.834;2023-05-08T04:14:40;94025.69;;;21.04;47.55
48035;BME280;33812;46.480;6.834;2023-05-08T04:18:46;94027.31;;;21.01;47.48
48035;BME280;33812;46.480;6.834;2023-05-08T04:22:50;94024.53;;;21.35;46.87
48035;BME280;33812;46.480;6.834;2023-05-08T04:26:53;94031.81;;;20.95;47.78
48035;BME280;33812;46.480;6.834;2023-05-08T04:30:55;94032.81;;;21.01;47.48
48035;BME280;33812;46.480;6.834;2023-05-08T04:34:59;94035.97;;;21.20;47.60
48035;BME280;33812;46.480;6.834;2023-05-08T04:39:01;94048.31;;;21.32;46.97
48035;BME280;33812;46.480;6.834;2023-05-08T04:43:03;94047.00;;;21.37;46.79
48035;BME280;33812;46.480;6.834;2023-05-08T04:47:05;94047.19;;;21.30;46.91
48035;BME280;33812;46.480;6.834;2023-05-08T04:51:08;94038.31;;;20.85;47.76
48035;BME280;33812;46.480;6.834;2023-05-08T04:55:09;94047.31;;;20.89;48.32
48035;BME280;33812;46.480;6.834;2023-05-08T04:59:11;94041.91;;;21.02;47.78
48035;BME280;33812;46.480;6.834;2023-05-08T05:03:13;94031.63;;;21.02;48.00
48035;BME280;33812;46.480;6.834;2023-05-08T05:07:16;94041.63;;;20.96;48.28
48035;BME280;33812;46.480;6.834;2023-05-08T05:11:18;94031.31;;;21.17;48.15
48035;BME280;33812;46.480;6.834;2023-05-08T05:15:20;94034.75;;;21.21;48.09
48035;BME280;33812;46.480;6.834;2023-05-08T05:19:22;94030.78;;;21.22;47.70
48035;BME280;33812;46.480;6.834;2023-05-08T05:23:25;94046.94;;;21.24;47.89
48035;BME280;33812;46.480;6.834;2023-05-08T05:27:27;94036.06;;;21.17;48.13
48035;BME280;33812;46.480;6.834;2023-05-08T05:31:29;94046.56;;;21.38;47.80
48035;BME280;33812;46.480;6.834;2023-05-08T05:35:31;94054.34;;;21.44;47.85
48035;BME280;33812;46.480;6.834;2023-05-08T05:39:34;94053.94;;;21.29;48.60
48035;BME280;33812;46.480;6.834;2023-05-08T05:43:37;94054.00;;;21.25;48.74
48035;BME280;33812;46.480;6.834;2023-05-08T05:47:43;94052.97;;;21.35;48.40
48035;BME280;33812;46.480;6.834;2023-05-08T05:51:45;94056.78;;;21.42;47.93
48035;BME280;33812;46.480;6.834;2023-05-08T05:55:52;94055.13;;;21.44;48.34
48035;BME280;33812;46.480;6.834;2023-05-08T05:59:53;94058.59;;;21.15;48.99
48035;BME280;33812;46.480;6.834;2023-05-08T06:03:56;94057.53;;;21.09;49.19
48035;BME280;33812;46.480;6.834;2023-05-08T06:07:59;94056.34;;;21.10;49.22
48035;BME280;33812;46.480;6.834;2023-05-08T06:12:02;94065.66;;;21.16;48.89
48035;BME280;33812;46.480;6.834;2023-05-08T06:16:05;94069.09;;;21.04;49.40
48035;BME280;33812;46.480;6.834;2023-05-08T06:20:07;94074.75;;;21.17;49.69
48035;BME280;33812;46.480;6.834;2023-05-08T06:24:09;94067.56;;;21.36;49.46
48035;BME280;33812;46.480;6.834;2023-05-08T06:28:12;94069.91;;;21.37;49.80
48035;BME280;33812;46.480;6.834;2023-05-08T06:32:14;94080.34;;;21.30;49.53
48035;BME280;33812;46.480;6.834;2023-05-08T06:36:16;94077.59;;;21.46;49.02
48035;BME280;33812;46.480;6.834;2023-05-08T06:40:17;94087.19;;;21.25;49.50
48035;BME280;33812;46.480;6.834;2023-05-08T06:44:21;94089.00;;;21.32;49.29
48035;BME280;33812;46.480;6.834;2023-05-08T06:48:22;94089.78;;;21.32;48.96
48035;BME280;33812;46.480;6.834;2023-05-08T06:52:29;94085.34;;;21.35;49.06
48035;BME280;33812;46.480;6.834;2023-05-08T06:56:31;94085.19;;;21.42;48.84
48035;BME280;33812;46.480;6.834;2023-05-08T07:00:35;94088.91;;;21.52;48.39
48035;BME280;33812;46.480;6.834;2023-05-08T07:04:37;94090.72;;;21.25;49.19
48035;BME280;33812;46.480;6.834;2023-05-08T07:08:38;94090.28;;;21.44;48.84
48035;BME280;33812;46.480;6.834;2023-05-08T07:12:40;94084.75;;;21.60;48.02
48035;BME280;33812;46.480;6.834;2023-05-08T07:16:43;94086.47;;;21.54;48.24
48035;BME280;33812;46.480;6.834;2023-05-08T07:32:49;94093.16;;;21.57;48.31
48035;BME280;33812;46.480;6.834;2023-05-08T07:36:51;94095.13;;;21.56;48.51
48035;BME280;33812;46.480;6.834;2023-05-08T07:40:53;94095.81;;;21.60;48.21
48035;BME280;33812;46.480;6.834;2023-05-08T07:44:56;94097.53;;;21.54;48.61
48035;BME280;33812;46.480;6.834;2023-05-08T07:48:59;94101.63;;;21.49;48.88
48035;BME280;33812;46.480;6.834;2023-05-08T07:53:01;94098.06;;;21.49;48.82
48035;BME280;33812;46.480;6.834;2023-05-08T07:57:02;94093.84;;;21.44;49.45
48035;BME280;33812;46.480;6.834;2023-05-08T08:01:04;94092.63;;;21.62;48.86
48035;BME280;33812;46.480;6.834;2023-05-08T08:05:08;94091.41;;;21.46;49.60
48035;BME280;33812;46.480;6.834;2023-05-08T08:09:10;94093.66;;;21.52;49.28
48035;BME280;33812;46.480;6.834;2023-05-08T08:13:11;94089.69;;;21.53;49.25
48035;BME280;33812;46.480;6.834;2023-05-08T08:17:13;94095.03;;;21.60;49.42
48035;BME280;33812;46.480;6.834;2023-05-08T08:21:16;94080.50;;;21.56;49.64
48035;BME280;33812;46.480;6.834;2023-05-08T08:25:18;94072.81;;;21.64;49.43
48035;BME280;33812;46.480;6.834;2023-05-08T08:29:20;94074.47;;;21.61;49.51
48035;BME280;33812;46.480;6.834;2023-05-08T08:33:22;94071.88;;;21.70;49.02
48035;BME280;33812;46.480;6.834;2023-05-08T08:37:25;94069.34;;;21.76;49.36
48035;BME280;33812;46.480;6.834;2023-05-08T08:41:27;94079.13;;;21.81;49.13
48035;BME280;33812;46.480;6.834;2023-05-08T08:45:30;94064.94;;;21.79;49.11
48035;BME280;33812;46.480;6.834;2023-05-08T08:49:34;94072.72;;;21.84;49.20
48035;BME280;33812;46.480;6.834;2023-05-08T08:53:42;94069.28;;;21.80;48.89
48035;BME280;33812;46.480;6.834;2023-05-08T08:57:53;94063.75;;;21.80;48.74
48035;BME280;33812;46.480;6.834;2023-05-08T09:02:00;94060.28;;;21.76;48.24
48035;BME280;33812;46.480;6.834;2023-05-08T09:06:06;94059.78;;;21.81;48.06
48035;BME280;33812;46.480;6.834;2023-05-08T09:10:10;94064.00;;;21.85;48.26
48035;BME280;33812;46.480;6.834;2023-05-08T09:14:14;94059.94;;;21.90;48.09
48035;BME280;33812;46.480;6.834;2023-05-08T09:18:16;94069.44;;;21.89;48.47
48035;BME280;33812;46.480;6.834;2023-05-08T09:22:18;94065.03;;;21.92;48.96
48035;BME280;33812;46.480;6.834;2023-05-08T09:26:28;94064.25;;;21.91;48.83
48035;BME280;33812;46.480;6.834;2023-05-08T09:30:47;94079.13;;;21.97;48.78
48035;BME280;33812;46.480;6.834;2023-05-08T09:34:51;94084.31;;;21.95;48.39
48035;BME280;33812;46.480;6.834;2023-05-08T09:38:53;94080.31;;;21.96;48.41
48035;BME280;33812;46.480;6.834;2023-05-08T09:42:56;94078.50;;;21.90;48.30
48035;BME280;33812;46.480;6.834;2023-05-08T09:47:13;94090.84;;;22.02;48.37
48035;BME280;33812;46.480;6.834;2023-05-08T09:51:15;94086.63;;;21.97;48.64
48035;BME280;33812;46.480;6.834;2023-05-08T09:55:17;94090.84;;;22.02;48.38
48035;BME280;33812;46.480;6.834;2023-05-08T09:59:24;94083.16;;;21.93;48.25
48035;BME280;33812;46.480;6.834;2023-05-08T10:03:44;94082.41;;;21.92;48.06
48035;BME280;33812;46.480;6.834;2023-05-08T10:07:46;94090.75;;;22.05;48.14
48035;BME280;33812;46.480;6.834;2023-05-08T10:11:50;94091.63;;;22.02;48.19
48035;BME280;33812;46.480;6.834;2023-05-08T10:15:54;94094.66;;;22.08;47.73
48035;BME280;33812;46.480;6.834;2023-05-08T10:19:58;94107.63;;;22.11;48.01
48035;BME280;33812;46.480;6.834;2023-05-08T10:24:04;94098.63;;;22.07;47.94
48035;BME280;33812;46.480;6.834;2023-05-08T10:28:12;94112.91;;;22.05;48.06
48035;BME280;33812;46.480;6.834;2023-05-08T10:32:19;94106.41;;;22.12;48.01
48035;BME280;33812;46.480;6.834;2023-05-08T10:36:22;94113.84;;;22.15;47.79
48035;BME280;33812;46.480;6.834;2023-05-08T10:40:24;94108.84;;;22.10;47.81
48035;BME280;33812;46.480;6.834;2023-05-08T10:44:26;94104.84;;;22.11;48.17
48035;BME280;33812;46.480;6.834;2023-05-08T10:48:35;94096.63;;;22.07;47.67
48035;BME280;33812;46.480;6.834;2023-05-08T10:52:43;94108.41;;;22.12;47.49
48035;BME280;33812;46.480;6.834;2023-05-08T10:56:48;94090.75;;;22.05;47.53
48035;BME280;33812;46.480;6.834;2023-05-08T11:01:11;94098.97;;;22.09;47.15
48035;BME280;33812;46.480;6.834;2023-05-08T11:05:16;94084.34;;;22.08;47.33
48035;BME280;33812;46.480;6.834;2023-05-08T11:09:19;94094.56;;;22.12;47.60
48035;BME280;33812;46.480;6.834;2023-05-08T11:13:26;94086.56;;;22.14;47.31
48035;BME280;33812;46.480;6.834;2023-05-08T11:17:30;94091.25;;;22.17;47.36
48035;BME280;33812;46.480;6.834;2023-05-08T11:21:33;94077.97;;;22.12;47.24
48035;BME280;33812;46.480;6.834;2023-05-08T11:25:40;94083.06;;;22.13;47.53
48035;BME280;33812;46.480;6.834;2023-05-08T11:29:43;94083.41;;;22.15;47.33
48035;BME280;33812;46.480;6.834;2023-05-08T11:33:45;94088.50;;;22.17;47.01
48035;BME280;33812;46.480;6.834;2023-05-08T11:38:16;94084.06;;;22.19;46.59
48035;BME280;33812;46.480;6.834;2023-05-08T11:42:34;94076.63;;;22.16;46.75
48035;BME280;33812;46.480;6.834;2023-05-08T11:46:41;94071.78;;;22.20;45.74
48035;BME280;33812;46.480;6.834;2023-05-08T11:50:45;94078.53;;;22.19;46.25
48035;BME280;33812;46.480;6.834;2023-05-08T11:54:48;94067.78;;;22.21;46.36
48035;BME280;33812;46.480;6.834;2023-05-08T11:59:00;94071.00;;;22.20;46.65
48035;BME280;33812;46.480;6.834;2023-05-08T12:03:05;94064.59;;;22.23;46.95
48035;BME280;33812;46.480;6.834;2023-05-08T12:07:08;94070.03;;;22.27;46.30
48035;BME280;33812;46.480;6.834;2023-05-08T12:11:21;94062.06;;;22.29;46.55
48035;BME280;33812;46.480;6.834;2023-05-08T12:15:24;94062.25;;;22.21;45.99
48035;BME280;33812;46.480;6.834;2023-05-08T12:19:27;94053.50;;;22.23;45.90
48035;BME280;33812;46.480;6.834;2023-05-08T12:23:30;94055.06;;;22.24;46.03
48035;BME280;33812;46.480;6.834;2023-05-08T12:27:33;94056.28;;;22.23;45.92
48035;BME280;33812;46.480;6.834;2023-05-08T12:31:36;94055.50;;;22.22;45.93
48035;BME280;33812;46.480;6.834;2023-05-08T12:35:40;94053.94;;;22.21;46.03
48035;BME280;33812;46.480;6.834;2023-05-08T12:39:43;94057.06;;;22.24;46.26
48035;BME280;33812;46.480;6.834;2023-05-08T12:43:46;94055.19;;;22.20;45.96
48035;BME280;33812;46.480;6.834;2023-05-08T12:47:50;94053.94;;;22.21;45.96
48035;BME280;33812;46.480;6.834;2023-05-08T12:52:00;94057.81;;;22.24;46.13
48035;BME280;33812;46.480;6.834;2023-05-08T12:56:03;94056.63;;;22.25;46.04
48035;BME280;33812;46.480;6.834;2023-05-08T13:00:08;94049.97;;;22.22;45.85
48035;BME280;33812;46.480;6.834;2023-05-08T13:04:09;94052.72;;;22.22;46.06
48035;BME280;33812;46.480;6.834;2023-05-08T13:08:11;94056.72;;;22.21;45.57
48035;BME280;33812;46.480;6.834;2023-05-08T13:12:13;94054.19;;;22.27;45.59
48035;BME280;33812;46.480;6.834;2023-05-08T13:16:16;94057.41;;;22.26;45.96
48035;BME280;33812;46.480;6.834;2023-05-08T13:20:18;94047.53;;;22.25;46.09
48035;BME280;33812;46.480;6.834;2023-05-08T13:24:21;94043.13;;;22.27;46.64
48035;BME280;33812;46.480;6.834;2023-05-08T13:28:23;94045.88;;;22.27;45.76
48035;BME280;33812;46.480;6.834;2023-05-08T13:32:26;94040.09;;;22.21;46.00
48035;BME280;33812;46.480;6.834;2023-05-08T13:36:27;94038.34;;;22.28;46.00
48035;BME280;33812;46.480;6.834;2023-05-08T13:40:38;94036.81;;;22.27;46.25
48035;BME280;33812;46.480;6.834;2023-05-08T13:44:39;94039.81;;;22.32;46.36
48035;BME280;33812;46.480;6.834;2023-05-08T13:48:42;94031.06;;;22.34;46.18
48035;BME280;33812;46.480;6.834;2023-05-08T13:52:45;94025.09;;;22.36;46.56
48035;BME280;33812;46.480;6.834;2023-05-08T13:56:47;94034.84;;;22.40;46.47
48035;BME280;33812;46.480;6.834;2023-05-08T14:00:49;94021.53;;;22.35;46.37
48035;BME280;33812;46.480;6.834;2023-05-08T14:04:52;94022.66;;;22.38;46.70
48035;BME280;33812;46.480;6.834;2023-05-08T14:08:54;94016.00;;;22.35;46.30
48035;BME280;33812;46.480;6.834;2023-05-08T14:12:56;94010.78;;;22.37;46.34
48035;BME280;33812;46.480;6.834;2023-05-08T14:16:57;94014.78;;;22.36;46.35
48035;BME280;33812;46.480;6.834;2023-05-08T14:21:01;94003.72;;;22.36;46.20
48035;BME280;33812;46.480;6.834;2023-05-08T14:25:03;94001.69;;;22.37;46.21
48035;BME280;33812;46.480;6.834;2023-05-08T14:29:05;93990.19;;;22.38;46.40
48035;BME280;33812;46.480;6.834;2023-05-08T14:33:07;93994.19;;;22.37;46.25
48035;BME280;33812;46.480;6.834;2023-05-08T14:37:10;94001.59;;;22.40;45.98
48035;BME280;33812;46.480;6.834;2023-05-08T14:41:12;93994.19;;;22.37;45.26
48035;BME280;33812;46.480;6.834;2023-05-08T14:45:14;93994.53;;;22.39;45.02
48035;BME280;33812;46.480;6.834;2023-05-08T14:49:16;93995.63;;;22.42;45.12
48035;BME280;33812;46.480;6.834;2023-05-08T14:53:19;93997.63;;;22.41;45.65
48035;BME280;33812;46.480;6.834;2023-05-08T14:57:21;93997.28;;;22.39;45.65
48035;BME280;33812;46.480;6.834;2023-05-08T15:01:22;94001.25;;;22.38;45.51
48035;BME280;33812;46.480;6.834;2023-05-08T15:05:26;93996.41;;;22.42;45.42
48035;BME280;33812;46.480;6.834;2023-05-08T15:09:30;93998.50;;;22.38;45.39
48035;BME280;33812;46.480;6.834;2023-05-08T15:13:32;94003.28;;;22.38;45.74
48035;BME280;33812;46.480;6.834;2023-05-08T15:17:33;93996.94;;;22.37;45.69
48035;BME280;33812;46.480;6.834;2023-05-08T15:21:35;93991.31;;;22.41;45.53
48035;BME280;33812;46.480;6.834;2023-05-08T15:25:39;93992.63;;;22.36;45.37
48035;BME280;33812;46.480;6.834;2023-05-08T15:29:40;93991.50;;;22.33;45.32
48035;BME280;33812;46.480;6.834;2023-05-08T15:33:42;94002.16;;;22.35;45.28
48035;BME280;33812;46.480;6.834;2023-05-08T15:37:45;94001.59;;;22.40;45.02
48035;BME280;33812;46.480;6.834;2023-05-08T15:41:48;94009.25;;;22.36;44.97
48035;BME280;33812;46.480;6.834;2023-05-08T15:45:50;94007.59;;;22.39;45.36
48035;BME280;33812;46.480;6.834;2023-05-08T15:49:52;94007.03;;;22.31;45.19
48035;BME280;33812;46.480;6.834;2023-05-08T15:53:54;94001.50;;;22.31;44.86
48035;BME280;33812;46.480;6.834;2023-05-08T15:57:57;94013.56;;;22.37;44.80
48035;BME280;33812;46.480;6.834;2023-05-08T16:01:59;94019.34;;;22.43;44.83
48035;BME280;33812;46.480;6.834;2023-05-08T16:06:00;94015.09;;;22.38;45.06
48035;BME280;33812;46.480;6.834;2023-05-08T16:10:03;94016.69;;;22.39;44.94
48035;BME280;33812;46.480;6.834;2023-05-08T16:14:10;94024.09;;;22.42;45.79
48035;BME280;33812;46.480;6.834;2023-05-08T16:18:20;94031.19;;;22.43;45.77
48035;BME280;33812;46.480;6.834;2023-05-08T16:22:23;94025.78;;;22.40;45.55
48035;BME280;33812;46.480;6.834;2023-05-08T16:26:42;94028.09;;;22.41;45.29
48035;BME280;33812;46.480;6.834;2023-05-08T16:30:45;94020.22;;;22.40;44.98
48035;BME280;33812;46.480;6.834;2023-05-08T16:34:47;94034.63;;;22.48;45.73
48035;BME280;33812;46.480;6.834;2023-05-08T16:38:51;94029.53;;;22.46;45.61
48035;BME280;33812;46.480;6.834;2023-05-08T16:42:53;94020.78;;;22.48;45.84
48035;BME280;33812;46.480;6.834;2023-05-08T16:46:56;94023.88;;;22.50;45.98
48035;BME280;33812;46.480;6.834;2023-05-08T16:50:58;94034.63;;;22.48;45.41
48035;BME280;33812;46.480;6.834;2023-05-08T16:55:00;94030.75;;;22.45;45.48
48035;BME280;33812;46.480;6.834;2023-05-08T16:59:02;94037.41;;;22.48;45.71
48035;BME280;33812;46.480;6.834;2023-05-08T17:03:08;94032.31;;;22.46;45.58
48035;BME280;33812;46.480;6.834;2023-05-08T17:07:09;94042.38;;;22.40;45.61
48035;BME280;33812;46.480;6.834;2023-05-08T17:11:12;94038.47;;;22.37;46.30
48035;BME280;33812;46.480;6.834;2023-05-08T17:15:14;94035.63;;;22.41;46.35
48035;BME280;33812;46.480;6.834;2023-05-08T17:19:17;94037.59;;;22.40;46.24
48035;BME280;33812;46.480;6.834;2023-05-08T17:23:19;94043.94;;;22.41;46.18
48035;BME280;33812;46.480;6.834;2023-05-08T17:27:21;94050.25;;;22.41;46.46
48035;BME280;33812;46.480;6.834;2023-05-08T17:31:28;94051.44;;;22.40;46.40
48035;BME280;33812;46.480;6.834;2023-05-08T17:35:31;94051.00;;;22.42;46.66
48035;BME280;33812;46.480;6.834;2023-05-08T17:39:33;94051.69;;;22.46;46.25
48035;BME280;33812;46.480;6.834;2023-05-08T17:43:35;94051.78;;;22.42;46.19
48035;BME280;33812;46.480;6.834;2023-05-08T17:47:38;94056.22;;;22.40;46.05
48035;BME280;33812;46.480;6.834;2023-05-08T17:51:41;94062.41;;;22.44;46.26
48035;BME280;33812;46.480;6.834;2023-05-08T17:55:43;94052.56;;;22.43;45.94
48035;BME280;33812;46.480;6.834;2023-05-08T17:59:45;94059.94;;;22.33;45.84
48035;BME280;33812;46.480;6.834;2023-05-08T18:03:46;94060.19;;;22.39;45.97
48035;BME280;33812;46.480;6.834;2023-05-08T18:07:56;94054.56;;;22.42;45.84
48035;BME280;33812;46.480;6.834;2023-05-08T18:12:05;94050.78;;;22.36;45.71
48035;BME280;33812;46.480;6.834;2023-05-08T18:16:07;94052.66;;;22.39;45.92
48035;BME280;33812;46.480;6.834;2023-05-08T18:20:09;94047.34;;;22.32;45.36
48035;BME280;33812;46.480;6.834;2023-05-08T18:24:12;94053.47;;;22.40;45.86
48035;BME280;33812;46.480;6.834;2023-05-08T18:28:20;94066.88;;;22.41;46.01
48035;BME280;33812;46.480;6.834;2023-05-08T18:32:22;94063.56;;;22.46;45.80
48035;BME280;33812;46.480;6.834;2023-05-08T18:36:23;94068.94;;;22.37;45.60
48035;BME280;33812;46.480;6.834;2023-05-08T18:40:28;94063.25;;;22.28;45.17
48035;BME280;33812;46.480;6.834;2023-05-08T18:44:29;94059.09;;;22.36;45.22
48035;BME280;33812;46.480;6.834;2023-05-08T18:48:31;94062.06;;;22.42;45.64
48035;BME280;33812;46.480;6.834;2023-05-08T18:52:34;94060.53;;;22.41;45.42
48035;BME280;33812;46.480;6.834;2023-05-08T18:56:37;94054.31;;;22.37;44.87
48035;BME280;33812;46.480;6.834;2023-05-08T19:00:39;94052.56;;;22.43;45.70
48035;BME280;33812;46.480;6.834;2023-05-08T19:04:42;94048.13;;;22.32;45.14
48035;BME280;33812;46.480;6.834;2023-05-08T19:08:45;94051.78;;;22.42;45.89
48035;BME280;33812;46.480;6.834;2023-05-08T19:12:49;94048.88;;;22.33;46.00
48035;BME280;33812;46.480;6.834;2023-05-08T19:16:50;94055.78;;;22.41;46.16
48035;BME280;33812;46.480;6.834;2023-05-08T19:20:52;94056.31;;;22.36;46.57
48035;BME280;33812;46.480;6.834;2023-05-08T19:24:54;94056.09;;;22.30;46.00
48035;BME280;33812;46.480;6.834;2023-05-08T19:28:57;94053.75;;;22.29;46.20
48035;BME280;33812;46.480;6.834;2023-05-08T19:32:59;94052.19;;;22.28;46.54
48035;BME280;33812;46.480;6.834;2023-05-08T19:37:00;94052.19;;;22.28;46.80
48035;BME280;33812;46.480;6.834;2023-05-08T19:41:02;94046.75;;;22.24;47.18
48035;BME280;33812;46.480;6.834;2023-05-08T19:45:08;94052.44;;;22.33;47.19
48035;BME280;33812;46.480;6.834;2023-05-08T19:49:10;94061.28;;;22.28;46.73
48035;BME280;33812;46.480;6.834;2023-05-08T19:53:13;94059.41;;;22.25;46.57
48035;BME280;33812;46.480;6.834;2023-05-08T19:57:15;94061.44;;;22.38;46.94
48035;BME280;33812;46.480;6.834;2023-05-08T20:01:20;94076.16;;;22.34;47.07
48035;BME280;33812;46.480;6.834;2023-05-08T20:05:24;94089.41;;;22.27;46.99
48035;BME280;33812;46.480;6.834;2023-05-08T20:09:27;94087.97;;;22.22;46.65
48035;BME280;33812;46.480;6.834;2023-05-08T20:17:56;94105.63;;;22.12;45.91
48035;BME280;33812;46.480;6.834;2023-05-08T20:21:58;94098.44;;;22.14;46.37
48035;BME280;33812;46.480;6.834;2023-05-08T20:26:00;94087.47;;;22.10;46.20
48035;BME280;33812;46.480;6.834;2023-05-08T20:30:04;94096.00;;;22.16;46.55
48035;BME280;33812;46.480;6.834;2023-05-08T20:34:07;94079.50;;;22.13;46.25
48035;BME280;33812;46.480;6.834;2023-05-08T20:38:09;94085.47;;;22.11;46.30
48035;BME280;33812;46.480;6.834;2023-05-08T20:42:11;94080.09;;;22.20;46.38
48035;BME280;33812;46.480;6.834;2023-05-08T20:46:12;94082.53;;;22.18;46.47
48035;BME280;33812;46.480;6.834;2023-05-08T20:50:17;94082.41;;;22.22;46.39
48035;BME280;33812;46.480;6.834;2023-05-08T20:54:18;94078.53;;;22.19;46.33
48035;BME280;33812;46.480;6.834;2023-05-08T20:58:20;94065.84;;;22.05;45.84
48035;BME280;33812;46.480;6.834;2023-05-08T21:02:22;94066.09;;;22.11;46.32
48035;BME280;33812;46.480;6.834;2023-05-08T21:06:25;94060.38;;;22.18;45.49
48035;BME280;33812;46.480;6.834;2023-05-08T21:10:27;94054.75;;;22.22;45.47
48035;BME280;33812;46.480;6.834;2023-05-08T21:14:30;94060.19;;;22.26;45.62
48035;BME280;33812;46.480;6.834;2023-05-08T21:18:32;94052.59;;;22.13;45.21
48035;BME280;33812;46.480;6.834;2023-05-08T21:22:36;94046.19;;;22.16;45.25
48035;BME280;33812;46.480;6.834;2023-05-08T21:26:38;94042.41;;;22.10;45.39
48035;BME280;33812;46.480;6.834;2023-05-08T21:30:40;94047.25;;;22.06;45.27
48035;BME280;33812;46.480;6.834;2023-05-08T21:34:43;94042.06;;;22.08;45.05
48035;BME280;33812;46.480;6.834;2023-05-08T21:38:46;94050.47;;;22.04;45.33
48035;BME280;33812;46.480;6.834;2023-05-08T21:42:48;94044.69;;;21.98;44.66
48035;BME280;33812;46.480;6.834;2023-05-08T21:46:49;94035.84;;;22.04;44.97
48035;BME280;33812;46.480;6.834;2023-05-08T21:50:52;94038.53;;;22.07;45.04